createdAt,value
2018-11-03T00:00:31.664Z,7.80
2018-11-03T00:03:01.686Z,7.80
2018-11-03T00:05:32.238Z,7.80
2018-11-03T00:08:01.957Z,7.80
2018-11-03T00:10:46.726Z,7.80
2018-11-03T00:13:16.347Z,7.80
2018-11-03T00:15:45.893Z,7.80
2018-11-03T00:18:15.605Z,7.80
2018-11-03T00:20:45.892Z,7.70
2018-11-03T00:23:16.628Z,7.70
2018-11-03T00:25:46.443Z,7.70
2018-11-03T00:28:15.896Z,7.80
2018-11-03T00:30:46.460Z,7.80
2018-11-03T00:33:16.755Z,7.70
2018-11-03T00:35:46.516Z,7.70
2018-11-03T00:38:15.825Z,7.70
2018-11-03T00:40:45.073Z,7.70
2018-11-03T00:43:14.378Z,7.70
2018-11-03T00:45:43.660Z,7.70
2018-11-03T00:48:13.026Z,7.70
2018-11-03T00:50:42.313Z,7.70
2018-11-03T00:53:11.610Z,7.70
2018-11-03T00:55:40.913Z,7.70
2018-11-03T00:58:10.222Z,7.70
2018-11-03T01:00:39.524Z,7.70
2018-11-03T01:03:09.203Z,7.70
2018-11-03T01:05:38.742Z,7.70
2018-11-03T01:08:08.321Z,7.70
2018-11-03T01:10:37.938Z,7.70
2018-11-03T01:13:07.505Z,7.70
2018-11-03T01:15:37.140Z,7.70
2018-11-03T01:18:06.685Z,7.70
2018-11-03T01:20:35.985Z,7.70
2018-11-03T01:23:05.745Z,7.70
2018-11-03T01:25:35.027Z,7.70
2018-11-03T01:28:04.566Z,7.70
2018-11-03T01:30:34.160Z,7.70
2018-11-03T01:33:04.179Z,7.70
2018-11-03T01:35:33.464Z,7.70
2018-11-03T01:38:03.045Z,7.70
2018-11-03T01:40:32.598Z,7.60
2018-11-03T01:43:02.100Z,7.60
2018-11-03T01:45:31.425Z,7.60
2018-11-03T01:48:00.713Z,7.60
2018-11-03T01:50:30.012Z,7.70
2018-11-03T01:52:59.288Z,7.70
2018-11-03T01:55:28.583Z,7.60
2018-11-03T01:57:57.868Z,7.70
2018-11-03T02:00:27.190Z,7.60
2018-11-03T02:02:56.493Z,7.60
2018-11-03T02:05:25.817Z,7.60
2018-11-03T02:07:55.251Z,7.60
2018-11-03T02:10:25.504Z,7.70
2018-11-03T02:12:55.328Z,7.70
2018-11-03T02:15:24.873Z,7.70
2018-11-03T02:17:54.252Z,7.70
2018-11-03T02:20:23.569Z,7.70
2018-11-03T02:22:52.815Z,7.70
2018-11-03T02:25:22.411Z,7.70
2018-11-03T02:27:51.704Z,7.70
2018-11-03T02:30:21.211Z,7.70
2018-11-03T02:32:50.647Z,7.70
2018-11-03T02:35:20.218Z,7.70
2018-11-03T02:37:49.477Z,7.70
2018-11-03T02:40:18.787Z,7.70
2018-11-03T02:42:48.071Z,7.70
2018-11-03T02:45:17.276Z,7.70
2018-11-03T02:47:47.176Z,7.70
2018-11-03T02:50:16.472Z,7.60
2018-11-03T02:52:45.766Z,7.60
2018-11-03T02:55:15.247Z,7.70
2018-11-03T02:57:44.844Z,7.70
2018-11-03T03:00:14.034Z,7.70
2018-11-03T03:02:43.064Z,7.60
2018-11-03T03:05:12.447Z,7.70
2018-11-03T03:07:41.840Z,7.60
2018-11-03T03:10:12.828Z,7.60
2018-11-03T03:12:42.492Z,7.60
2018-11-03T03:15:12.887Z,7.60
2018-11-03T03:17:43.901Z,7.50
2018-11-03T03:20:13.513Z,7.60
2018-11-03T03:22:43.056Z,7.60
2018-11-03T03:25:12.472Z,7.60
2018-11-03T03:27:41.778Z,7.60
2018-11-03T03:30:11.421Z,7.70
2018-11-03T03:32:41.416Z,7.70
2018-11-03T03:35:11.162Z,7.70
2018-11-03T03:37:40.451Z,7.70
2018-11-03T03:40:10.492Z,7.70
2018-11-03T03:42:39.815Z,7.70
2018-11-03T03:45:10.335Z,7.60
2018-11-03T03:47:40.276Z,7.70
2018-11-03T03:50:10.996Z,7.70
2018-11-03T03:52:40.815Z,7.70
2018-11-03T03:55:10.401Z,7.80
2018-11-03T03:57:39.666Z,7.70
2018-11-03T04:00:10.720Z,7.70
2018-11-03T04:02:40.644Z,7.70
2018-11-03T04:05:10.420Z,7.70
2018-11-03T04:07:39.977Z,7.70
2018-11-03T04:10:10.296Z,7.70
2018-11-03T04:12:39.781Z,7.60
2018-11-03T04:15:09.613Z,7.70
2018-11-03T04:17:38.638Z,7.60
2018-11-03T04:20:08.840Z,7.60
2018-11-03T04:22:38.550Z,7.60
2018-11-03T04:25:08.728Z,7.50
2018-11-03T04:27:38.015Z,7.50
2018-11-03T04:30:10.056Z,7.40
2018-11-03T04:32:39.554Z,7.50
2018-11-03T04:35:09.508Z,7.50
2018-11-03T04:37:39.399Z,7.50
2018-11-03T04:40:11.325Z,7.50
2018-11-03T04:42:41.796Z,7.50
2018-11-03T04:45:11.834Z,7.50
2018-11-03T04:47:41.333Z,7.50
2018-11-03T04:50:11.232Z,7.50
2018-11-03T04:52:40.913Z,7.50
2018-11-03T04:55:10.734Z,7.50
2018-11-03T04:57:40.417Z,7.60
2018-11-03T05:00:10.421Z,7.60
2018-11-03T05:02:40.195Z,7.70
2018-11-03T05:05:09.832Z,7.60
2018-11-03T05:07:39.375Z,7.60
2018-11-03T05:10:09.829Z,7.70
2018-11-03T05:12:39.351Z,7.70
2018-11-03T05:15:08.753Z,7.70
2018-11-03T05:17:38.009Z,7.70
2018-11-03T05:20:08.050Z,7.70
2018-11-03T05:22:37.545Z,7.70
2018-11-03T05:25:06.892Z,7.60
2018-11-03T05:27:36.527Z,7.60
2018-11-03T05:30:06.219Z,7.60
2018-11-03T05:32:35.756Z,7.60
2018-11-03T05:35:06.063Z,7.60
2018-11-03T05:37:35.345Z,7.60
2018-11-03T05:40:05.547Z,7.60
2018-11-03T05:42:35.335Z,7.60
2018-11-03T05:45:04.948Z,7.50
2018-11-03T05:47:34.428Z,7.50
2018-11-03T05:50:03.727Z,7.50
2018-11-03T05:52:32.988Z,7.50
2018-11-03T05:55:02.897Z,7.60
2018-11-03T05:57:32.207Z,7.60
2018-11-03T06:00:01.515Z,7.60
2018-11-03T06:02:31.421Z,7.60
2018-11-03T06:05:00.756Z,7.60
2018-11-03T06:07:30.075Z,7.50
2018-11-03T06:09:59.579Z,7.60
2018-11-03T06:12:28.855Z,7.50
2018-11-03T06:14:58.530Z,7.50
2018-11-03T06:17:28.212Z,7.50
2018-11-03T06:19:57.784Z,7.50
2018-11-03T06:22:27.204Z,7.50
2018-11-03T06:24:56.686Z,7.60
2018-11-03T06:27:26.167Z,7.60
2018-11-03T06:29:55.223Z,7.60
2018-11-03T06:32:24.530Z,7.50
2018-11-03T06:34:53.904Z,7.50
2018-11-03T06:37:23.332Z,7.50
2018-11-03T06:39:52.784Z,7.60
2018-11-03T06:42:22.505Z,7.60
2018-11-03T06:44:51.788Z,7.70
2018-11-03T06:47:21.115Z,7.70
2018-11-03T06:49:51.028Z,7.80
2018-11-03T06:52:21.021Z,7.80
2018-11-03T06:54:50.542Z,7.90
2018-11-03T06:57:19.839Z,7.90
2018-11-03T06:59:49.101Z,7.90
2018-11-03T07:02:18.380Z,7.90
2018-11-03T07:04:48.066Z,8.00
2018-11-03T07:07:17.700Z,8.00
2018-11-03T07:09:47.172Z,8.10
2018-11-03T07:12:16.406Z,8.10
2018-11-03T07:14:45.851Z,8.20
2018-11-03T07:17:15.368Z,8.20
2018-11-03T07:19:44.666Z,8.30
2018-11-03T07:22:13.951Z,8.30
2018-11-03T07:24:43.359Z,8.40
2018-11-03T07:27:13.265Z,8.50
2018-11-03T07:29:42.817Z,8.50
2018-11-03T07:32:12.870Z,8.50
2018-11-03T07:34:42.135Z,8.50
2018-11-03T07:37:11.423Z,8.60
2018-11-03T07:39:40.695Z,8.60
2018-11-03T07:42:10.012Z,8.60
2018-11-03T07:44:39.346Z,8.50
2018-11-03T07:47:08.876Z,8.60
2018-11-03T07:49:39.332Z,8.60
2018-11-03T07:52:08.634Z,8.70
2018-11-03T07:54:38.169Z,8.70
2018-11-03T07:57:07.614Z,8.70
2018-11-03T07:59:36.915Z,8.60
2018-11-03T08:02:06.840Z,8.60
2018-11-03T08:04:36.144Z,8.50
2018-11-03T08:07:05.747Z,8.50
2018-11-03T08:09:35.142Z,8.50
2018-11-03T08:12:04.662Z,8.70
2018-11-03T08:14:33.950Z,8.80
2018-11-03T08:17:03.270Z,8.80
2018-11-03T08:19:32.861Z,8.90
2018-11-03T08:22:02.160Z,9.00
2018-11-03T08:24:31.736Z,9.10
2018-11-03T08:27:01.661Z,9.10
2018-11-03T08:29:31.284Z,9.20
2018-11-03T08:32:00.567Z,9.40
2018-11-03T08:34:29.868Z,9.40
2018-11-03T08:36:59.130Z,9.50
2018-11-03T08:39:28.573Z,9.50
2018-11-03T08:41:57.941Z,9.50
2018-11-03T08:44:27.391Z,9.60
2018-11-03T08:46:57.619Z,9.70
2018-11-03T08:49:27.102Z,9.80
2018-11-03T08:51:56.871Z,9.80
2018-11-03T08:54:26.365Z,9.90
2018-11-03T08:56:56.044Z,9.80
2018-11-03T08:59:25.669Z,9.40
2018-11-03T09:01:55.335Z,9.50
2018-11-03T09:04:25.176Z,9.50
2018-11-03T09:06:54.526Z,9.40
2018-11-03T09:09:24.035Z,9.40
2018-11-03T09:11:53.321Z,9.60
2018-11-03T09:14:23.242Z,9.80
2018-11-03T09:16:53.489Z,10.00
2018-11-03T09:19:22.780Z,10.10
2018-11-03T09:21:52.460Z,10.10
2018-11-03T09:24:21.941Z,10.10
2018-11-03T09:26:51.241Z,10.00
2018-11-03T09:29:20.518Z,9.90
2018-11-03T09:31:49.869Z,10.00
2018-11-03T09:34:19.331Z,10.10
2018-11-03T09:36:49.089Z,10.30
2018-11-03T09:39:18.762Z,10.30
2018-11-03T09:41:48.470Z,10.40
2018-11-03T09:44:17.745Z,10.50
2018-11-03T09:46:47.049Z,10.60
2018-11-03T09:49:16.344Z,10.70
2018-11-03T09:51:46.365Z,10.80
2018-11-03T09:54:15.700Z,10.90
2018-11-03T09:56:45.644Z,11.00
2018-11-03T09:59:15.264Z,11.00
2018-11-03T10:01:44.534Z,11.10
2018-11-03T10:04:13.851Z,11.10
2018-11-03T10:06:43.806Z,11.20
2018-11-03T10:09:13.490Z,11.30
2018-11-03T10:11:42.792Z,11.40
2018-11-03T10:14:12.127Z,11.50
2018-11-03T10:16:41.427Z,11.50
2018-11-03T10:19:10.801Z,11.50
2018-11-03T10:21:40.170Z,11.50
2018-11-03T10:24:09.499Z,11.40
2018-11-03T10:26:39.172Z,11.60
2018-11-03T10:29:08.512Z,11.60
2018-11-03T10:31:37.861Z,11.60
2018-11-03T10:34:07.378Z,11.50
2018-11-03T10:36:36.698Z,11.40
2018-11-03T10:39:08.480Z,11.50
2018-11-03T10:41:37.818Z,11.50
2018-11-03T10:44:07.613Z,11.40
2018-11-03T10:46:37.163Z,11.40
2018-11-03T10:49:07.738Z,11.50
2018-11-03T10:51:37.020Z,11.40
2018-11-03T10:54:07.110Z,11.40
2018-11-03T10:56:36.850Z,11.40
2018-11-03T10:59:07.560Z,11.40
2018-11-03T11:01:42.528Z,11.40
2018-11-03T11:04:17.207Z,11.30
2018-11-03T11:06:53.624Z,11.30
2018-11-03T11:09:28.167Z,11.40
2018-11-03T11:12:02.901Z,11.30
2018-11-03T11:14:32.199Z,11.30
2018-11-03T11:17:01.729Z,11.30
2018-11-03T11:19:31.317Z,11.30
2018-11-03T11:22:00.679Z,11.30
2018-11-03T11:24:29.972Z,11.40
2018-11-03T11:26:59.449Z,11.50
2018-11-03T11:29:28.741Z,11.50
2018-11-03T11:31:58.407Z,11.60
2018-11-03T11:34:27.942Z,11.60
2018-11-03T11:36:57.716Z,11.60
2018-11-03T11:39:26.998Z,11.60
2018-11-03T11:41:56.302Z,11.60
2018-11-03T11:44:25.656Z,11.60
2018-11-03T11:46:54.971Z,11.70
2018-11-03T11:49:24.399Z,11.60
2018-11-03T11:51:53.718Z,11.70
2018-11-03T11:54:23.048Z,11.70
2018-11-03T11:56:52.355Z,11.70
2018-11-03T11:59:21.660Z,11.70
2018-11-03T12:01:50.992Z,11.70
2018-11-03T12:04:20.269Z,11.70
2018-11-03T12:06:50.126Z,11.70
2018-11-03T12:09:19.442Z,11.60
2018-11-03T12:11:48.981Z,11.60
2018-11-03T12:14:18.336Z,11.50
2018-11-03T12:16:47.941Z,11.50
2018-11-03T12:19:17.266Z,11.50
2018-11-03T12:21:46.874Z,11.60
2018-11-03T12:24:16.740Z,11.60
2018-11-03T12:26:46.233Z,11.60
2018-11-03T12:29:15.733Z,11.70
2018-11-03T12:31:46.496Z,11.70
2018-11-03T12:34:16.009Z,11.70
2018-11-03T12:36:45.333Z,11.70
2018-11-03T12:39:14.722Z,11.70
2018-11-03T12:41:44.210Z,11.70
2018-11-03T12:44:13.516Z,11.60
2018-11-03T12:46:42.859Z,11.60
2018-11-03T12:49:12.354Z,11.50
2018-11-03T12:51:41.915Z,11.50
2018-11-03T12:54:11.152Z,11.40
2018-11-03T12:56:40.743Z,11.50
2018-11-03T12:59:10.108Z,11.40
2018-11-03T13:01:39.937Z,11.40
2018-11-03T13:04:09.344Z,11.50
2018-11-03T13:06:39.157Z,11.50
2018-11-03T13:09:09.913Z,11.50
2018-11-03T13:11:39.785Z,11.50
2018-11-03T13:14:09.164Z,11.50
2018-11-03T13:16:38.769Z,11.40
2018-11-03T13:19:08.419Z,11.50
2018-11-03T13:21:37.713Z,11.60
2018-11-03T13:24:07.287Z,11.60
2018-11-03T13:26:36.589Z,11.50
2018-11-03T13:29:06.482Z,11.50
2018-11-03T13:31:35.796Z,11.60
2018-11-03T13:34:05.720Z,11.50
2018-11-03T13:36:35.054Z,11.60
2018-11-03T13:39:05.635Z,11.50
2018-11-03T13:41:35.227Z,11.50
2018-11-03T13:44:05.343Z,11.50
2018-11-03T13:46:34.644Z,11.50
2018-11-03T13:49:03.981Z,11.40
2018-11-03T13:51:33.564Z,11.30
2018-11-03T13:54:03.106Z,11.30
2018-11-03T13:56:32.705Z,11.30
2018-11-03T13:59:02.035Z,11.30
2018-11-03T14:01:31.369Z,11.30
2018-11-03T14:04:00.995Z,11.20
2018-11-03T14:06:30.608Z,11.20
2018-11-03T14:08:59.915Z,11.30
2018-11-03T14:11:29.268Z,11.20
2018-11-03T14:13:59.370Z,11.20
2018-11-03T14:16:28.399Z,11.20
2018-11-03T14:18:57.442Z,11.30
2018-11-03T14:21:26.633Z,11.20
2018-11-03T14:23:56.297Z,11.20
2018-11-03T14:26:25.965Z,11.20
2018-11-03T14:28:55.619Z,11.20
2018-11-03T14:31:25.098Z,11.20
2018-11-03T14:33:55.381Z,11.30
2018-11-03T14:36:24.827Z,11.20
2018-11-03T14:38:54.827Z,11.20
2018-11-03T14:41:24.164Z,11.10
2018-11-03T14:43:55.253Z,11.10
2018-11-03T14:46:24.545Z,11.30
2018-11-03T14:48:53.652Z,11.20
2018-11-03T14:51:22.967Z,11.10
2018-11-03T14:53:52.475Z,11.10
2018-11-03T14:56:21.820Z,11.00
2018-11-03T14:58:51.390Z,11.00
2018-11-03T15:01:20.697Z,10.80
2018-11-03T15:03:50.355Z,10.90
2018-11-03T15:06:20.224Z,11.00
2018-11-03T15:08:49.583Z,11.00
2018-11-03T15:11:18.926Z,11.00
2018-11-03T15:13:48.646Z,10.90
2018-11-03T15:16:18.383Z,10.90
2018-11-03T15:18:47.948Z,10.80
2018-11-03T15:21:16.967Z,10.80
2018-11-03T15:23:46.288Z,10.80
2018-11-03T15:26:15.859Z,10.80
2018-11-03T15:28:45.447Z,10.80
2018-11-03T15:31:15.449Z,10.80
2018-11-03T15:33:45.413Z,10.80
2018-11-03T15:36:14.718Z,10.60
2018-11-03T15:38:43.997Z,10.50
2018-11-03T15:41:13.515Z,10.50
2018-11-03T15:43:43.056Z,10.60
2018-11-03T15:46:12.395Z,10.70
2018-11-03T15:48:42.388Z,10.60
2018-11-03T15:51:11.715Z,10.50
2018-11-03T15:53:41.022Z,10.50
2018-11-03T15:56:10.333Z,10.60
2018-11-03T15:58:39.913Z,10.40
2018-11-03T16:01:09.200Z,10.40
2018-11-03T16:03:38.697Z,10.40
2018-11-03T16:06:08.029Z,10.50
2018-11-03T16:08:37.563Z,10.50
2018-11-03T16:11:06.894Z,10.40
2018-11-03T16:13:36.481Z,10.30
2018-11-03T16:16:05.883Z,10.40
2018-11-03T16:18:35.718Z,10.40
2018-11-03T16:21:06.082Z,10.20
2018-11-03T16:23:35.402Z,10.10
2018-11-03T16:26:04.809Z,10.10
2018-11-03T16:28:34.259Z,10.10
2018-11-03T16:31:03.726Z,10.10
2018-11-03T16:33:33.680Z,10.30
2018-11-03T16:36:03.369Z,10.40
2018-11-03T16:38:33.260Z,10.30
2018-11-03T16:41:02.776Z,10.20
2018-11-03T16:43:32.173Z,10.20
2018-11-03T16:46:01.417Z,10.30
2018-11-03T16:48:30.804Z,10.40
2018-11-03T16:51:00.629Z,10.30
2018-11-03T16:53:29.936Z,10.40
2018-11-03T16:55:59.272Z,10.40
2018-11-03T16:58:28.869Z,10.20
2018-11-03T17:00:58.419Z,10.10
2018-11-03T17:03:27.665Z,10.30
2018-11-03T17:05:57.287Z,10.20
2018-11-03T17:08:26.904Z,10.20
2018-11-03T17:10:56.419Z,10.20
2018-11-03T17:13:25.823Z,10.20
2018-11-03T17:15:55.463Z,10.40
2018-11-03T17:18:25.308Z,10.20
2018-11-03T17:20:54.926Z,10.20
2018-11-03T17:23:24.979Z,10.00
2018-11-03T17:25:54.550Z,10.10
2018-11-03T17:28:23.879Z,10.30
2018-11-03T17:30:53.206Z,10.20
2018-11-03T17:33:22.734Z,10.00
2018-11-03T17:35:51.993Z,10.00
2018-11-03T17:38:21.693Z,10.40
2018-11-03T17:40:50.977Z,10.30
2018-11-03T17:43:20.433Z,10.40
2018-11-03T17:45:49.756Z,10.50
2018-11-03T17:48:19.354Z,10.50
2018-11-03T17:50:49.350Z,10.40
2018-11-03T17:53:18.681Z,10.40
2018-11-03T17:55:48.499Z,10.40
2018-11-03T17:58:17.830Z,10.30
2018-11-03T18:00:47.147Z,10.30
2018-11-03T18:03:16.604Z,10.50
2018-11-03T18:05:45.957Z,10.30
2018-11-03T18:08:15.280Z,10.20
2018-11-03T18:10:44.823Z,10.20
2018-11-03T18:13:14.371Z,10.30
2018-11-03T18:15:43.736Z,10.30
2018-11-03T18:18:13.342Z,10.30
2018-11-03T18:20:42.823Z,10.20
2018-11-03T18:23:12.176Z,10.20
2018-11-03T18:25:41.528Z,10.20
2018-11-03T18:28:11.247Z,10.10
2018-11-03T18:30:40.544Z,10.20
2018-11-03T18:33:10.052Z,10.00
2018-11-03T18:35:39.691Z,10.10
2018-11-03T18:38:09.086Z,10.10
2018-11-03T18:40:38.960Z,10.00
2018-11-03T18:43:08.283Z,10.20
2018-11-03T18:45:37.526Z,10.30
2018-11-03T18:48:07.530Z,10.30
2018-11-03T18:50:37.042Z,10.40
2018-11-03T18:53:06.341Z,10.60
2018-11-03T18:55:35.672Z,10.80
2018-11-03T18:58:05.227Z,11.70
2018-11-03T19:00:34.571Z,12.10
2018-11-03T19:03:04.231Z,11.60
2018-11-03T19:05:34.070Z,11.00
2018-11-03T19:08:03.738Z,10.70
2018-11-03T19:10:33.589Z,10.50
2018-11-03T19:13:03.018Z,10.30
2018-11-03T19:15:32.848Z,10.30
2018-11-03T19:18:02.421Z,10.20
2018-11-03T19:20:32.387Z,10.20
2018-11-03T19:23:02.243Z,10.20
2018-11-03T19:25:32.221Z,10.20
2018-11-03T19:28:02.570Z,10.30
2018-11-03T19:30:32.070Z,10.30
2018-11-03T19:33:01.953Z,10.30
2018-11-03T19:35:31.570Z,10.30
2018-11-03T19:38:01.637Z,10.30
2018-11-03T19:40:31.673Z,10.20
2018-11-03T19:43:01.279Z,10.20
2018-11-03T19:45:30.732Z,10.00
2018-11-03T19:48:00.748Z,10.20
2018-11-03T19:50:30.431Z,10.30
2018-11-03T19:53:00.048Z,10.10
2018-11-03T19:55:30.180Z,10.10
2018-11-03T19:57:59.568Z,9.90
2018-11-03T20:00:28.791Z,10.00
2018-11-03T20:02:58.537Z,10.00
2018-11-03T20:05:28.028Z,10.10
2018-11-03T20:07:57.530Z,10.00
2018-11-03T20:10:26.812Z,10.00
2018-11-03T20:12:56.124Z,10.00
2018-11-03T20:15:25.353Z,10.00
2018-11-03T20:17:54.709Z,10.10
2018-11-03T20:20:24.202Z,10.00
2018-11-03T20:22:53.530Z,10.00
2018-11-03T20:25:22.886Z,10.10
2018-11-03T20:27:52.203Z,10.00
2018-11-03T20:30:21.420Z,9.90
2018-11-03T20:32:50.735Z,10.00
2018-11-03T20:35:20.087Z,10.10
2018-11-03T20:37:49.999Z,10.20
2018-11-03T20:40:19.336Z,10.30
2018-11-03T20:42:48.914Z,10.30
2018-11-03T20:45:18.089Z,10.30
2018-11-03T20:47:47.190Z,10.30
2018-11-03T20:50:16.560Z,10.30
2018-11-03T20:52:46.140Z,10.20
2018-11-03T20:55:16.253Z,10.00
2018-11-03T20:57:45.603Z,10.20
2018-11-03T21:00:15.905Z,10.20
2018-11-03T21:02:46.226Z,10.30
2018-11-03T21:05:15.681Z,10.30
2018-11-03T21:07:45.519Z,10.20
2018-11-03T21:10:14.916Z,10.00
2018-11-03T21:12:44.212Z,9.90
2018-11-03T21:15:13.109Z,9.90
2018-11-03T21:17:42.411Z,9.80
2018-11-03T21:20:11.791Z,9.90
2018-11-03T21:22:41.134Z,9.90
2018-11-03T21:25:10.678Z,10.10
2018-11-03T21:27:39.989Z,10.10
2018-11-03T21:30:10.701Z,10.00
2018-11-03T21:32:40.761Z,10.10
2018-11-03T21:35:11.166Z,9.90
2018-11-03T21:37:40.504Z,9.90
2018-11-03T21:40:10.560Z,9.90
2018-11-03T21:42:39.884Z,10.10
2018-11-03T21:45:09.050Z,9.90
2018-11-03T21:47:38.801Z,10.00
2018-11-03T21:50:09.116Z,10.00
2018-11-03T21:52:38.802Z,9.90
2018-11-03T21:55:08.888Z,9.90
2018-11-03T21:57:38.501Z,9.90
2018-11-03T22:00:09.035Z,9.90
2018-11-03T22:02:38.725Z,10.00
2018-11-03T22:05:09.529Z,10.00
2018-11-03T22:07:38.848Z,9.90
2018-11-03T22:10:08.563Z,9.90
2018-11-03T22:12:38.134Z,9.80
2018-11-03T22:15:08.358Z,9.90
2018-11-03T22:17:37.535Z,9.90
2018-11-03T22:20:08.138Z,9.80
2018-11-03T22:22:37.873Z,10.00
2018-11-03T22:25:09.434Z,10.00
2018-11-03T22:27:39.577Z,9.90
2018-11-03T22:30:11.216Z,9.90
2018-11-03T22:32:40.766Z,9.80
2018-11-03T22:35:10.145Z,9.90
2018-11-03T22:37:39.423Z,9.80
2018-11-03T22:40:09.883Z,9.80
2018-11-03T22:42:39.321Z,9.90
2018-11-03T22:45:08.676Z,9.90
2018-11-03T22:47:38.001Z,9.90
2018-11-03T22:50:07.343Z,9.90
2018-11-03T22:52:37.204Z,9.80
2018-11-03T22:55:07.572Z,9.70
2018-11-03T22:57:37.260Z,9.70
2018-11-03T23:00:08.084Z,9.90
2018-11-03T23:02:37.573Z,9.80
2018-11-03T23:05:08.569Z,9.80
2018-11-03T23:07:38.398Z,9.90
2018-11-03T23:10:08.572Z,9.90
2018-11-03T23:12:37.958Z,9.80
2018-11-03T23:15:08.147Z,9.80
2018-11-03T23:17:37.785Z,9.70
2018-11-03T23:20:10.378Z,9.60
2018-11-03T23:22:40.487Z,9.80
2018-11-03T23:25:10.589Z,9.80
2018-11-03T23:27:40.354Z,9.80
2018-11-03T23:30:11.208Z,9.70
2018-11-03T23:32:40.826Z,9.60
2018-11-03T23:35:12.713Z,9.70
2018-11-03T23:37:42.866Z,9.70
2018-11-03T23:40:13.115Z,9.80
2018-11-03T23:42:42.425Z,9.80
2018-11-03T23:45:12.154Z,9.70
2018-11-03T23:47:41.790Z,9.70
2018-11-03T23:50:13.498Z,9.60
2018-11-03T23:52:45.285Z,9.60
2018-11-03T23:55:14.980Z,9.70
2018-11-03T23:57:44.303Z,9.80
